Taif, Saudi Arabia
Current Conditions -  °F | °C
As of 7:00 PM on Monday 24 Nov 2014 (Local Time) from OETF Reporting Station
Scattered Clouds Scattered Clouds  
Wind Chill: 63°   Ceiling: Unl
Heat Index: 63°   Visibility: 6mi
Dew Point: 52°   Wind: 9mph
Humidity: 68%   Direction: 240°WSW
Pressure: 30.03"   Gusts: NA
Location:  21.48°N, 40.54°E
Report Text: OETF 241600Z 24008KT 9999 FEW025CB SCT030 17/11 Q1017 TEMPO TS
Loading
Personal Weather Stations






























Interactive Weather Map New forecast layout! Learn more

10-Day Weather Forecast

Advertisements
Track Severe Weather on mobile